Time;durP1;ratioP1;P1;durP2;ratioP2;P2;SDS_P1;SDS_P2;PMS_P1;PMS_P2;Temp;Humidity;BMP_temperature;BMP_pressure;BME280_temperature;BME280_humidity;BME280_pressure;Samples;Min_cycle;Max_cycle;Signal;HPM_P1;HPM_P2
2022/07/05 00:00:14;;;;;;;0.62;0.43;;;16.20;1.40;;;17.51;100.00;95676.53;645917;216;31678;-76
2022/07/05 00:02:56;;;;;;;1.90;0.50;;;16.20;1.40;;;17.37;100.00;95673.91;647764;216;31492;-76
2022/07/05 00:05:41;;;;;;;0.90;0.47;;;16.10;1.40;;;17.24;100.00;95671.00;647572;212;31614;-75
2022/07/05 00:08:22;;;;;;;3.47;1.00;;;16.00;1.40;;;17.19;100.00;95674.70;645852;212;31566;-75
2022/07/05 00:11:07;;;;;;;1.40;0.98;;;16.00;1.40;;;17.16;100.00;95665.92;646498;216;31492;-77
2022/07/05 00:13:51;;;;;;;1.50;0.60;;;16.00;1.40;;;17.15;100.00;95661.22;647086;216;31797;-76
2022/07/05 00:16:33;;;;;;;0.50;0.40;;;15.90;1.40;;;17.14;100.00;95661.30;646096;212;31570;-75
2022/07/05 00:19:15;;;;;;;0.62;0.30;;;15.90;1.40;;;17.04;100.00;95655.41;646151;212;31458;-75
2022/07/05 00:21:57;;;;;;;1.60;0.73;;;15.80;1.40;;;17.12;100.00;95643.64;646468;216;31488;-76
2022/07/05 00:24:41;;;;;;;0.57;0.40;;;15.90;1.40;;;17.06;100.00;95639.73;645998;216;31671;-77
2022/07/05 00:27:23;;;;;;;0.80;0.60;;;15.80;1.40;;;17.05;100.00;95629.83;618869;226;31810;-76
2022/07/05 00:30:06;;;;;;;0.70;0.40;;;15.80;1.40;;;17.04;100.00;95621.76;646740;212;31463;-77
2022/07/05 00:32:48;;;;;;;0.65;0.47;;;15.70;1.40;;;17.04;100.00;95615.63;619601;222;31819;-76
2022/07/05 00:35:51;;;;;;;0.82;0.62;;;15.80;1.40;;;16.99;100.00;95630.50;619218;226;31848;-78
2022/07/05 00:38:33;;;;;;;0.70;0.70;;;15.70;1.40;;;16.98;100.00;95630.58;619781;222;31985;-78
2022/07/05 00:41:15;;;;;;;1.00;0.80;;;15.70;1.40;;;16.99;100.00;95625.28;647347;216;31499;-76
2022/07/05 00:43:57;;;;;;;0.50;0.30;;;15.70;1.40;;;17.03;100.00;95621.09;647672;216;31507;-75
2022/07/05 00:46:38;;;;;;;1.10;0.70;;;15.80;1.40;;;17.04;100.00;95622.54;646910;216;31647;-75
2022/07/05 00:49:20;;;;;;;0.60;0.60;;;15.70;1.40;;;17.00;100.00;95616.46;646147;216;31497;-75
2022/07/05 00:52:01;;;;;;;1.40;0.40;;;15.70;1.40;;;17.01;100.00;95614.53;647074;216;31514;-75
2022/07/05 00:54:43;;;;;;;1.42;0.90;;;15.70;1.40;;;16.95;100.00;95607.38;646649;216;31716;-73
2022/07/05 00:57:25;;;;;;;0.60;0.40;;;15.70;1.40;;;16.98;100.00;95607.08;645493;212;31606;-74
2022/07/05 01:00:08;;;;;;;0.68;0.50;;;15.70;1.40;;;17.00;100.00;95613.95;646850;216;42122;-75
2022/07/05 01:02:49;;;;;;;0.50;0.40;;;15.70;1.40;;;16.95;100.00;95620.89;646106;212;31467;-74
2022/07/05 01:05:31;;;;;;;0.80;0.40;;;15.70;1.40;;;16.90;100.00;95624.76;646524;216;31479;-74
2022/07/05 01:08:13;;;;;;;0.70;0.40;;;15.70;1.40;;;16.89;100.00;95624.62;647468;216;31456;-74
2022/07/05 01:10:55;;;;;;;0.40;0.40;;;15.70;1.40;;;16.86;100.00;95621.72;619464;226;31956;-74
2022/07/05 01:13:37;;;;;;;0.62;0.40;;;15.70;1.40;;;16.88;100.00;95627.56;646016;212;31512;-74
2022/07/05 01:16:18;;;;;;;0.40;0.20;;;15.70;1.40;;;16.95;100.00;95625.69;646407;212;31474;-75
2022/07/05 01:21:35;;;;;;;0.50;0.50;;;15.70;1.40;;;16.94;100.00;95617.80;646991;212;31659;-76
2022/07/05 01:24:17;;;;;;;0.90;0.50;;;15.70;1.40;;;16.97;100.00;95612.16;647501;212;31543;-75
2022/07/05 01:26:58;;;;;;;0.47;0.40;;;15.70;1.40;;;17.02;100.00;95606.20;646526;212;31537;-75
2022/07/05 01:29:40;;;;;;;0.70;0.50;;;15.70;1.40;;;17.01;100.00;95604.64;619329;226;31954;-75
2022/07/05 01:32:22;;;;;;;0.60;0.43;;;15.70;1.40;;;17.02;100.00;95604.02;646344;216;32858;-75
2022/07/05 01:35:51;;;;;;;1.00;0.60;;;15.70;1.40;;;16.99;100.00;95600.88;646341;216;31609;-75
2022/07/05 01:38:33;;;;;;;0.45;0.30;;;15.70;1.40;;;16.96;100.00;95595.46;647366;216;31483;-75
2022/07/05 01:41:14;;;;;;;2.70;0.90;;;15.70;1.40;;;16.94;100.00;95599.39;647873;216;31509;-76
2022/07/05 01:43:59;;;;;;;0.50;0.40;;;15.70;1.40;;;16.88;100.00;95596.17;620924;226;31800;-76
2022/07/05 01:46:46;;;;;;;0.60;0.37;;;15.70;1.40;;;16.81;100.00;95596.90;612971;230;32523;-76
2022/07/05 01:49:31;;;;;;;0.60;0.20;;;15.60;1.40;;;16.83;100.00;95598.68;618549;226;31985;-76
2022/07/05 01:52:12;;;;;;;0.70;0.40;;;15.60;1.40;;;16.81;100.00;95593.03;646618;212;31545;-76
2022/07/05 01:54:54;;;;;;;0.40;0.30;;;15.60;1.40;;;16.80;100.00;95601.66;646493;216;31500;-76
2022/07/05 01:57:38;;;;;;;0.50;0.40;;;15.60;1.40;;;16.78;100.00;95599.12;645806;216;31694;-76
2022/07/05 02:00:20;;;;;;;0.60;0.47;;;15.60;1.40;;;16.75;100.00;95598.11;647303;216;31567;-76
2022/07/05 02:03:10;;;;;;;0.70;0.30;;;15.60;1.40;;;16.72;100.00;95602.85;647962;212;31503;-76
2022/07/05 02:05:52;;;;;;;0.70;0.50;;;15.60;1.40;;;16.72;100.00;95605.72;646292;212;31463;-75
2022/07/05 02:08:34;;;;;;;2.60;0.30;;;15.60;1.40;;;16.70;100.00;95602.87;619664;226;31853;-74
2022/07/05 02:11:15;;;;;;;0.40;0.30;;;15.60;1.40;;;16.70;100.00;95602.67;646570;212;31486;-75
2022/07/05 02:13:58;;;;;;;0.60;0.60;;;15.60;1.40;;;16.69;100.00;95603.39;646237;216;31480;-75
2022/07/05 02:16:40;;;;;;;0.70;0.60;;;15.50;1.40;;;16.70;100.00;95604.72;647564;216;31582;-75
2022/07/05 02:19:21;;;;;;;1.00;0.70;;;15.60;1.40;;;16.71;100.00;95608.76;645975;216;31610;-75
2022/07/05 02:22:07;;;;;;;0.47;0.45;;;15.60;1.40;;;16.71;100.00;95608.50;646411;212;31540;-75
2022/07/05 02:24:48;;;;;;;0.98;0.50;;;15.60;1.40;;;16.71;100.00;95606.41;646661;212;31504;-75
2022/07/05 02:27:29;;;;;;;3.20;0.95;;;15.60;1.40;;;16.73;100.00;95608.13;646341;216;31489;-75
2022/07/05 02:30:12;;;;;;;0.70;0.68;;;15.60;1.40;;;16.73;100.00;95612.14;646633;212;31477;-75
2022/07/05 02:32:54;;;;;;;0.80;0.50;;;15.50;1.40;;;16.74;100.00;95608.70;647622;216;31485;-76
2022/07/05 02:35:50;;;;;;;;;;;15.50;1.40;;;16.72;100.00;95613.00;653129;212;24839;-76
2022/07/05 02:38:32;;;;;;;;;;;15.50;1.40;;;16.70;100.00;95609.57;653000;212;24854;-76
2022/07/05 02:41:13;;;;;;;;;;;15.50;1.40;;;16.73;100.00;95613.17;654040;216;24729;-76
2022/07/05 02:43:59;;;;;;;;;;;15.50;1.40;;;16.77;100.00;95616.13;606385;233;25398;-76
2022/07/05 02:46:41;;;;;;;;;;;15.50;1.40;;;16.79;100.00;95615.52;654233;216;24789;-76
2022/07/05 02:49:25;;;;;;;;;;;15.50;1.40;;;16.74;100.00;95613.09;653073;216;25203;-76
2022/07/05 02:52:06;;;;;;;;;;;15.60;1.40;;;16.72;100.00;95614.59;650992;216;24825;-76
2022/07/05 02:54:50;;;;;;;;;;;15.50;1.40;;;16.69;100.00;95614.44;654495;212;24846;-78
2022/07/05 02:57:32;;;;;;;;;;;15.60;1.40;;;16.64;100.00;95616.53;653208;216;25268;-76
2022/07/05 03:00:13;;;;;;;;;;;15.50;1.40;;;16.60;100.00;95617.92;648613;215;25548;-76
2022/07/05 03:02:55;;;;;;;;;;;15.50;1.40;;;16.57;100.00;95627.67;653740;216;24813;-76
2022/07/05 03:05:36;;;;;;;;;;;15.40;1.40;;;16.53;100.00;95625.42;649400;215;24814;-76
2022/07/05 03:08:21;;;;;;;;;;;15.40;1.40;;;16.51;100.00;95625.97;652420;216;24730;-76
2022/07/05 03:11:02;;;;;;;;;;;15.40;1.40;;;16.44;100.00;95633.41;653118;216;24832;-76
2022/07/05 03:13:47;;;;;;;;;;;15.30;1.40;;;16.35;100.00;95635.65;653131;216;24832;-76
2022/07/05 03:16:29;;;;;;;;;;;15.20;1.40;;;16.29;100.00;95633.19;652516;212;25054;-75
2022/07/05 03:19:12;;;;;;;;;;;15.20;1.40;;;16.24;100.00;95631.53;654100;216;24812;-77
2022/07/05 03:21:53;;;;;;;;;;;15.10;1.40;;;16.17;100.00;95632.92;652937;212;24817;-76
2022/07/05 03:24:38;;;;;;;;;;;15.00;1.40;;;16.11;100.00;95632.94;652758;216;24851;-76
2022/07/05 03:27:19;;;;;;;;;;;15.00;1.40;;;16.07;100.00;95638.16;653258;212;24824;-76
2022/07/05 03:30:01;;;;;;;;;;;14.90;1.40;;;16.01;100.00;95631.32;653403;216;25091;-76
2022/07/05 03:32:42;;;;;;;;;;;14.80;1.40;;;16.01;100.00;95628.44;651919;216;24825;-76
2022/07/05 03:35:51;;;;;;;0.68;0.50;;;14.90;1.40;;;15.99;100.00;95627.23;646611;216;31503;-76
2022/07/05 03:38:33;;;;;;;;;;;14.90;1.40;;;15.96;100.00;95628.52;652263;216;24822;-76
2022/07/05 03:41:17;;;;;;;;;;;14.80;1.40;;;15.93;100.00;95626.70;652520;212;24820;-76
2022/07/05 03:43:58;;;;;;;;;;;14.80;1.40;;;15.91;100.00;95626.89;654261;213;25204;-76
2022/07/05 03:46:39;;;;;;;;;;;14.80;1.40;;;15.95;100.00;95622.91;653322;212;24828;-76
2022/07/05 03:49:24;;;;;;;;;;;14.90;1.40;;;15.96;100.00;95623.26;652649;212;24813;-76
2022/07/05 03:52:05;;;;;;;;;;;14.90;1.40;;;15.97;100.00;95630.91;652387;212;24916;-76
2022/07/05 03:54:46;;;;;;;;;;;14.90;1.40;;;16.00;100.00;95629.09;653270;216;24842;-75
2022/07/05 03:57:28;;;;;;;;;;;14.90;1.40;;;16.05;100.00;95629.36;653490;216;24840;-76
2022/07/05 04:00:09;;;;;;;;;;;15.00;1.40;;;16.09;100.00;95635.66;649643;215;25817;-76
2022/07/05 04:02:56;;;;;;;;;;;15.00;1.40;;;16.17;100.00;95634.61;652653;216;24832;-76
2022/07/05 04:05:39;;;;;;;;;;;15.10;1.40;;;16.22;100.00;95635.39;622394;227;24855;-76
2022/07/05 04:08:19;;;;;;;;;;;15.10;1.40;;;16.30;100.00;95639.64;653858;216;25261;-76
2022/07/05 04:11:00;;;;;;;;;;;15.20;1.40;;;16.36;100.00;95638.64;647682;217;24873;-75
2022/07/05 04:13:41;;;;;;;;;;;15.20;1.40;;;16.33;100.00;95643.55;653474;216;24830;-76
2022/07/05 04:16:23;;;;;;;;;;;15.20;1.40;;;16.36;100.00;95641.81;653434;212;24891;-76
2022/07/05 04:19:04;;;;;;;;;;;15.30;1.40;;;16.38;100.00;95644.83;652586;216;24827;-76
2022/07/05 04:21:45;;;;;;;;;;;15.30;1.40;;;16.49;100.00;95646.23;653602;216;24823;-76
2022/07/05 04:24:27;;;;;;;;;;;15.40;1.40;;;16.57;100.00;95642.70;653270;216;24932;-76
2022/07/05 04:27:11;;;;;;;;;;;15.50;1.40;;;16.62;100.00;95641.53;652862;212;24851;-77
2022/07/05 04:29:52;;;;;;;;;;;15.50;1.40;;;16.66;100.00;95644.70;649153;216;24820;-76
2022/07/05 04:32:34;;;;;;;;;;;15.50;1.40;;;16.60;100.00;95643.76;652681;216;25438;-76
2022/07/05 04:35:54;;;;;;;;;;;15.40;1.40;;;16.50;100.00;95637.71;621566;226;25446;-76
2022/07/05 04:38:36;;;;;;;;;;;15.30;1.40;;;16.45;100.00;95639.98;621921;224;24882;-76
2022/07/05 04:41:17;;;;;;;;;;;15.30;1.40;;;16.40;100.00;95641.73;648086;217;25200;-76
2022/07/05 04:44:02;;;;;;;;;;;15.30;1.40;;;16.39;100.00;95644.79;621899;226;24854;-76
2022/07/05 04:46:43;;;;;;;;;;;15.30;1.40;;;16.39;100.00;95641.76;653339;216;24817;-75
2022/07/05 04:49:24;;;;;;;;;;;15.30;1.40;;;16.41;100.00;95646.22;653539;216;24793;-75
2022/07/05 04:52:12;;;;;;;;;;;15.30;1.40;;;16.42;100.00;95648.57;653157;212;24742;-76
2022/07/05 04:54:53;;;;;;;;;;;15.30;1.40;;;16.43;100.00;95650.80;652576;216;24915;-75
2022/07/05 04:57:38;;;;;;;;;;;15.40;1.40;;;16.46;100.00;95652.23;653434;216;25038;-76
2022/07/05 05:00:19;;;;;;;;;;;15.40;1.40;;;16.53;100.00;95653.22;653239;216;24804;-76
2022/07/05 05:03:01;;;;;;;;;;;15.40;1.40;;;16.62;100.00;95653.03;653802;216;25405;-76
2022/07/05 05:05:42;;;;;;;;;;;15.40;1.40;;;16.70;100.00;95649.77;654162;212;24819;-76
2022/07/05 05:08:29;;;;;;;;;;;15.50;1.40;;;16.76;100.00;95647.03;652887;216;24817;-76
2022/07/05 05:11:17;;;;;;;;;;;15.60;1.40;;;16.88;100.00;95644.04;654443;216;25241;-76
2022/07/05 05:13:58;;;;;;;;;;;15.70;1.40;;;17.01;100.00;95641.48;652751;216;24824;-76
2022/07/05 05:16:39;;;;;;;;;;;15.90;1.40;;;17.14;100.00;95637.70;654097;216;24832;-75
2022/07/05 05:19:26;;;;;;;;;;;16.00;1.40;;;17.22;100.00;95641.31;653172;216;24819;-76
2022/07/05 05:22:10;;;;;;;;;;;16.10;1.40;;;17.36;100.00;95641.63;653272;216;24781;-76
2022/07/05 05:24:57;;;;;;;;;;;16.20;1.40;;;17.49;100.00;95637.16;652086;216;24853;-76
2022/07/05 05:27:44;;;;;;;;;;;16.30;1.40;;;17.55;100.00;95640.49;653323;212;24838;-76
2022/07/05 05:30:26;;;;;;;;;;;16.40;1.40;;;17.61;100.00;95640.28;653729;212;24809;-76
2022/07/05 05:35:51;;;;;;;1.17;1.08;;;16.50;1.40;;;17.66;100.00;95640.98;647154;212;31549;-76
2022/07/05 05:38:36;;;;;;;4.37;1.35;;;16.50;1.40;;;17.75;100.00;95646.87;619735;226;32005;-76
2022/07/05 05:41:25;;;;;;;1.10;1.00;;;16.60;1.40;;;17.82;100.00;95643.79;646581;216;31557;-76
2022/07/05 05:44:16;;;;;;;;;;;16.60;1.40;;;17.88;100.00;95645.95;653419;212;24979;-76
2022/07/05 05:46:59;;;;;;;;;;;16.70;1.40;;;17.85;100.00;95651.17;653307;212;24738;-75
2022/07/05 05:49:45;;;;;;;;;;;16.60;1.40;;;17.97;100.00;95652.60;608227;233;24991;-75
2022/07/05 05:52:33;;;;;;;;;;;16.80;1.40;;;18.16;100.00;95657.06;648989;212;25223;-75
2022/07/05 05:55:20;;;;;;;;;;;17.00;1.40;;;18.20;100.00;95657.41;652022;214;24959;-73
2022/07/05 05:58:10;;;;;;;;;;;17.00;1.40;;;18.18;100.00;95660.91;654457;216;24817;-73
2022/07/05 06:00:52;;;;;;;;;;;16.90;1.40;;;18.25;100.00;95656.23;649483;216;24827;-75
2022/07/05 06:03:39;;;;;;;;;;;17.00;1.40;;;18.21;100.00;95661.41;652661;212;24843;-74
2022/07/05 06:06:29;;;;;;;;;;;17.10;1.40;;;18.27;100.00;95667.98;653324;212;24735;-74
2022/07/05 06:09:10;;;;;;;;;;;17.10;1.40;;;18.29;100.00;95667.83;652997;216;24929;-75
2022/07/05 06:11:54;;;;;;;;;;;17.20;1.40;;;18.48;100.00;95671.20;652906;216;24820;-76
2022/07/05 06:14:37;;;;;;;;;;;17.30;1.40;;;18.71;100.00;95671.31;653095;212;24940;-75
2022/07/05 06:17:20;;;;;;;;;;;17.60;1.40;;;18.61;100.00;95674.75;653741;212;24923;-75
2022/07/05 06:20:02;;;;;;;;;;;17.40;1.40;;;18.64;100.00;95679.49;650356;215;24839;-73
2022/07/05 06:22:49;;;;;;;;;;;17.40;1.40;;;18.71;100.00;95680.88;653628;216;24833;-75
2022/07/05 06:25:30;;;;;;;;;;;17.50;1.40;;;18.71;100.00;95680.95;652847;216;25011;-75
2022/07/05 06:28:12;;;;;;;;;;;17.50;1.40;;;18.88;100.00;95682.66;653505;212;24849;-76
2022/07/05 06:31:00;;;;;;;;;;;17.70;1.40;;;18.88;100.00;95686.16;652571;212;24826;-76
2022/07/05 06:35:51;;;;;;;1.67;1.48;;;17.80;1.40;;;19.04;100.00;95690.11;647296;216;31579;-75
2022/07/05 06:38:33;;;;;;;2.30;2.10;;;17.80;1.40;;;19.27;100.00;95696.34;647308;216;31904;-75
2022/07/05 06:41:18;;;;;;;2.30;2.08;;;18.00;1.40;;;19.19;100.00;95698.55;646716;216;31524;-73
2022/07/05 06:43:59;;;;;;;1.65;1.55;;;17.80;1.40;;;19.30;100.00;95700.47;619132;224;31910;-75
2022/07/05 06:46:41;;;;;;;2.23;2.03;;;17.90;1.40;;;19.49;100.00;95702.63;618969;226;32644;-74
2022/07/05 06:49:23;;;;;;;2.30;2.10;;;18.10;1.40;;;19.53;100.00;95701.75;645970;216;42348;-74
2022/07/05 06:52:05;;;;;;;3.17;2.00;;;18.00;1.40;;;19.58;100.00;95704.18;647466;212;42260;-74
2022/07/05 06:54:52;;;;;;;2.50;1.98;;;18.10;1.40;;;19.58;100.00;95703.36;646854;216;42400;-75
2022/07/05 06:57:40;;;;;;;2.08;1.87;;;18.20;1.40;;;19.60;100.00;95705.55;645138;216;31586;-74
2022/07/05 07:00:24;;;;;;;1.80;1.58;;;18.10;1.40;;;19.70;100.00;95702.50;646244;216;31935;-74
2022/07/05 07:03:06;;;;;;;1.80;1.60;;;18.20;1.40;;;19.77;100.00;95713.05;646041;216;42258;-74
2022/07/05 07:05:48;;;;;;;1.77;1.67;;;18.20;1.40;;;19.86;100.00;95712.64;646632;216;31606;-74
2022/07/05 07:11:23;;;;;;;1.50;1.40;;;18.50;1.40;;;20.13;100.00;95713.80;618939;226;31893;-76
2022/07/05 07:14:06;;;;;;;2.10;1.90;;;18.50;1.40;;;19.95;100.00;95718.36;618568;226;42569;-76
2022/07/05 07:16:48;;;;;;;2.50;1.70;;;18.40;1.40;;;20.15;100.00;95716.73;647011;216;31531;-76
2022/07/05 07:19:36;;;;;;;2.42;2.10;;;18.70;1.40;;;20.27;100.00;95720.91;647000;216;31722;-74
2022/07/05 07:22:18;;;;;;;1.95;1.60;;;18.80;1.40;;;20.35;100.00;95721.06;646999;212;31574;-75
2022/07/05 07:24:59;;;;;;;5.00;1.40;;;18.80;1.40;;;20.34;100.00;95723.00;647070;216;31743;-74
2022/07/05 07:27:43;;;;;;;2.05;1.58;;;18.70;1.40;;;20.41;100.00;95725.83;646957;212;31773;-75
2022/07/05 07:30:31;;;;;;;3.30;1.80;;;18.90;1.40;;;20.42;100.00;95725.13;647442;216;31560;-77
2022/07/05 07:35:57;;;;;;;1.77;1.40;;;19.00;1.40;;;20.61;100.00;95733.79;646479;216;42817;-74
2022/07/05 07:38:39;;;;;;;4.28;1.90;;;19.00;1.40;;;20.69;100.00;95737.27;646825;216;31525;-75
2022/07/05 07:41:21;;;;;;;1.60;1.30;;;19.10;1.40;;;20.90;100.00;95733.42;647240;216;31609;-75
2022/07/05 07:44:02;;;;;;;3.00;2.20;;;19.30;1.40;;;20.98;100.00;95741.13;617250;226;32552;-74
2022/07/05 07:46:46;;;;;;;1.20;1.10;;;19.30;1.40;;;21.08;100.00;95745.45;647519;216;31664;-72
2022/07/05 07:49:28;;;;;;;2.33;1.55;;;19.30;1.40;;;21.23;100.00;95740.20;645940;216;31590;-72
2022/07/05 07:52:10;;;;;;;1.23;1.10;;;19.40;1.40;;;21.23;100.00;95740.78;647169;216;31528;-74
2022/07/05 07:54:51;;;;;;;1.20;1.10;;;19.30;1.40;;;21.20;100.00;95750.36;646471;212;31644;-72
2022/07/05 07:57:33;;;;;;;1.17;1.00;;;19.00;1.40;;;21.09;100.00;95758.06;646972;216;31577;-73
2022/07/05 08:00:15;;;;;;;1.12;1.02;;;18.80;1.40;;;21.11;100.00;95758.22;646224;216;31541;-72
2022/07/05 08:02:58;;;;;;;2.78;1.00;;;18.80;1.40;;;20.94;100.00;95766.45;620361;226;32434;-72
2022/07/05 08:05:38;;;;;;;0.90;0.80;;;18.60;1.40;;;20.90;100.00;95768.03;645792;212;31855;-73
2022/07/05 08:08:20;;;;;;;1.40;1.20;;;18.60;1.40;;;21.03;100.00;95769.92;618915;222;32385;-73
2022/07/05 08:11:03;;;;;;;1.20;1.10;;;18.80;1.40;;;21.14;100.00;95772.23;645778;212;31681;-73
2022/07/05 08:13:45;;;;;;;2.10;0.80;;;18.80;1.40;;;21.37;100.00;95766.55;646290;212;31520;-72
2022/07/05 08:16:26;;;;;;;1.30;1.00;;;19.20;1.40;;;21.61;100.00;95769.58;646659;216;31567;-73
2022/07/05 08:21:58;;;;;;;2.30;1.40;;;19.40;1.40;;;21.53;100.00;95773.20;647850;216;31591;-72
2022/07/05 08:24:40;;;;;;;2.70;1.20;;;19.40;1.40;;;21.47;100.00;95772.45;647166;216;31574;-73
2022/07/05 08:27:22;;;;;;;1.10;0.90;;;19.50;1.40;;;21.65;100.00;95768.94;646252;216;32068;-73
2022/07/05 08:30:11;;;;;;;1.40;1.30;;;19.70;1.40;;;21.73;100.00;95767.23;645634;216;31735;-74
2022/07/05 08:32:59;;;;;;;0.93;0.90;;;20.00;1.40;;;21.92;100.00;95772.55;648224;216;32195;-75
2022/07/05 08:35:57;;;;;;;2.30;1.10;;;20.40;1.40;;;21.89;100.00;95777.67;647296;216;31539;-74
2022/07/05 08:41:13;;;;;;;1.05;1.05;;;20.50;1.40;;;22.49;100.00;95776.17;645908;216;31668;-74
2022/07/05 08:43:55;;;;;;;2.90;1.10;;;21.00;1.40;;;22.53;100.00;95779.69;646582;216;42163;-74
2022/07/05 08:46:38;;;;;;;3.60;0.90;;;21.10;1.40;;;22.98;100.00;95777.03;645751;216;31519;-74
2022/07/05 08:49:26;;;;;;;1.70;1.40;;;21.70;1.40;;;22.75;100.00;95782.31;646666;216;31590;-76
2022/07/05 08:52:11;;;;;;;1.30;1.20;;;21.30;1.40;;;22.84;100.00;95783.79;646769;216;31590;-74
2022/07/05 08:54:55;;;;;;;1.30;1.20;;;21.60;1.40;;;23.05;100.00;95784.33;647471;216;32077;-77
2022/07/05 08:57:38;;;;;;;1.10;1.00;;;22.10;1.40;;;23.35;100.00;95782.77;645672;216;31568;-74
2022/07/05 09:00:20;;;;;;;4.12;1.25;;;22.30;1.40;;;23.43;100.00;95788.77;646502;212;31725;-74
2022/07/05 09:03:02;;;;;;;1.58;1.30;;;22.30;1.40;;;23.27;100.00;95785.49;645547;216;31590;-74
2022/07/05 09:05:43;;;;;;;2.00;0.90;;;22.30;1.40;;;23.80;100.00;95783.81;647429;216;31511;-74
2022/07/05 09:08:25;;;;;;;3.60;1.30;;;22.70;1.40;;;23.59;100.00;95785.75;646029;215;31536;-74
2022/07/05 09:11:08;;;;;;;2.08;1.00;;;22.40;1.40;;;23.82;100.00;95789.10;646790;216;31533;-74
2022/07/05 09:13:49;;;;;;;1.55;1.30;;;22.80;1.40;;;23.65;99.20;95794.67;646208;216;31589;-74
2022/07/05 09:16:41;;;;;;;1.60;0.90;;;22.80;1.40;;;24.11;88.49;95792.56;646740;216;31572;-76
2022/07/05 09:19:31;;;;;;;1.80;1.10;;;23.40;1.40;;;24.98;90.46;95785.19;647257;216;31585;-74
2022/07/05 09:22:11;;;;;;;2.00;1.20;;;23.90;1.40;;;25.40;90.00;95784.94;619599;226;32437;-74
2022/07/05 09:24:52;;;;;;;1.23;1.08;;;24.50;1.40;;;26.24;92.19;95783.34;645904;216;31546;-75
2022/07/05 09:27:34;;;;;;;1.40;1.30;;;25.00;1.40;;;26.03;86.72;95778.89;647215;216;31509;-75
2022/07/05 09:30:24;;;;;;;1.77;1.23;;;24.70;1.40;;;26.28;74.35;95780.70;645960;216;31743;-74
2022/07/05 09:35:57;;;;;;;0.70;0.67;;;24.20;1.40;;;25.55;78.28;95785.58;644848;216;31573;-75
2022/07/05 09:38:36;;;;;;;1.40;1.20;;;25.80;1.40;;;27.62;72.65;95786.48;646472;216;31529;-75
2022/07/05 09:41:21;;;;;;;2.30;1.10;;;27.90;1.40;;;29.49;64.11;95782.27;647102;216;31526;-75
2022/07/05 09:44:03;;;;;;;1.50;0.93;;;29.10;1.40;;;29.94;59.30;95779.73;646739;212;31746;-75
2022/07/05 09:46:51;;;;;;;0.98;0.90;;;29.20;1.40;;;31.71;55.17;95774.64;646783;216;31613;-76
2022/07/05 09:49:34;;;;;;;3.80;1.20;;;30.20;1.40;;;32.05;54.86;95773.68;645873;216;43198;-74
2022/07/05 09:52:27;;;;;;;2.30;1.00;;;29.90;1.40;;;29.69;52.16;95775.12;645592;216;32166;-73
2022/07/05 09:55:18;;;;;;;1.10;1.00;;;28.40;1.40;;;29.69;58.37;95774.82;619813;226;31959;-76
2022/07/05 09:58:04;;;;;;;1.00;0.90;;;28.40;1.40;;;30.12;56.58;95777.91;647037;216;31612;-75
2022/07/05 10:00:46;;;;;;;1.73;1.10;;;27.80;1.40;;;28.12;57.04;95782.03;645314;216;31624;-75
2022/07/05 10:03:30;;;;;;;2.50;0.85;;;24.70;1.40;;;27.00;61.85;95786.33;645549;216;31643;-76
2022/07/05 10:06:14;;;;;;;1.33;1.00;;;23.60;1.40;;;27.98;63.00;95784.89;646435;216;31826;-75
2022/07/05 10:08:59;;;;;;;1.10;1.00;;;27.40;1.40;;;30.91;55.58;95770.72;647139;216;31531;-76
2022/07/05 10:11:41;;;;;;;1.77;1.05;;;27.20;1.40;;;29.85;54.83;95773.32;646207;216;31770;-75
2022/07/05 10:14:27;;;;;;;2.50;1.40;;;25.60;1.40;;;28.31;58.12;95782.20;621033;224;31892;-75
2022/07/05 10:17:09;;;;;;;1.55;1.45;;;25.60;1.40;;;26.78;63.13;95783.90;647204;216;31582;-75
2022/07/05 10:19:51;;;;;;;1.30;1.20;;;24.40;1.40;;;25.77;64.82;95787.77;646039;216;31671;-76
2022/07/05 10:22:33;;;;;;;1.40;0.85;;;23.90;1.40;;;27.92;62.78;95786.92;647238;216;31591;-75
2022/07/05 10:25:15;;;;;;;1.20;1.10;;;27.80;1.40;;;30.04;56.89;95776.69;619367;225;32184;-75
2022/07/05 10:27:58;;;;;;;1.00;0.88;;;29.50;1.40;;;31.99;52.27;95773.47;646828;212;31722;-76
2022/07/05 10:30:39;;;;;;;1.10;1.00;;;30.70;1.40;;;32.21;49.03;95771.05;618355;226;31885;-75
2022/07/05 10:35:51;;;;;;;1.10;1.00;;;29.20;1.40;;;32.90;50.17;95774.03;645779;216;31512;-74
2022/07/05 10:38:36;;;;;;;0.93;0.88;;;29.90;1.40;;;33.91;47.34;95770.91;647734;216;31646;-73
2022/07/05 10:41:18;;;;;;;1.17;1.08;;;30.70;1.40;;;32.11;45.92;95776.45;646772;216;31654;-74
2022/07/05 10:44:00;;;;;;;1.60;1.10;;;27.70;1.40;;;29.54;48.68;95782.14;647085;213;31886;-73
2022/07/05 10:46:43;;;;;;;1.52;1.42;;;24.80;1.40;;;28.37;52.14;95791.34;646071;216;31581;-76
2022/07/05 10:49:25;;;;;;;1.20;0.82;;;25.90;1.40;;;29.52;47.18;95781.02;647188;216;31550;-76
2022/07/05 10:52:23;;;;;;;1.90;1.10;;;27.90;1.40;;;30.04;48.05;95783.33;644810;216;32038;-74
2022/07/05 10:55:18;;;;;;;1.50;1.27;;;27.70;1.40;;;32.89;45.54;95771.36;646386;212;31868;-75
2022/07/05 10:58:19;;;;;;;1.20;1.10;;;30.60;1.40;;;34.03;42.96;95769.25;619052;226;31912;-74
2022/07/05 11:01:28;;;;;;;1.60;0.90;;;30.60;1.40;;;32.07;42.12;95771.31;645669;216;31545;-73
2022/07/05 11:04:11;;;;;;;1.10;1.00;;;28.90;1.40;;;31.88;44.42;95777.59;646688;216;31594;-75
2022/07/05 11:06:56;;;;;;;2.50;1.00;;;28.50;1.40;;;31.98;46.05;95772.00;646321;212;42313;-76
2022/07/05 11:09:38;;;;;;;1.10;1.00;;;28.70;1.40;;;30.94;44.23;95779.06;646224;212;31749;-76
2022/07/05 11:12:25;;;;;;;1.10;1.00;;;27.20;1.40;;;30.85;42.28;95772.56;647102;216;31737;-77
2022/07/05 11:15:14;;;;;;;1.10;0.75;;;27.00;1.40;;;32.22;43.32;95773.58;646988;216;31567;-74
2022/07/05 11:18:10;;;;;;;2.10;1.00;;;29.00;1.40;;;34.68;41.32;95763.38;646736;216;31618;-75
2022/07/05 11:20:51;;;;;;;2.30;1.10;;;30.20;1.40;;;35.33;41.73;95760.49;648359;216;31850;-74
2022/07/05 11:23:33;;;;;;;2.00;0.70;;;31.10;1.40;;;35.19;36.93;95759.70;645845;215;31678;-74
2022/07/05 11:26:16;;;;;;;0.70;0.70;;;30.40;1.40;;;33.46;37.04;95764.89;646124;216;31676;-76
2022/07/05 11:29:03;;;;;;;2.08;0.80;;;29.00;1.40;;;33.97;38.20;95750.95;648244;216;31522;-78
2022/07/05 11:35:52;;;;;;;1.00;0.80;;;29.70;1.40;;;34.30;37.22;95749.73;647144;216;31558;-75
2022/07/05 11:38:34;;;;;;;2.42;1.17;;;29.50;1.40;;;33.16;38.60;95756.72;645536;216;31594;-74
2022/07/05 11:41:15;;;;;;;1.20;0.80;;;28.70;1.40;;;32.99;40.59;95753.33;647300;216;31468;-76
2022/07/05 11:43:58;;;;;;;1.53;1.10;;;28.10;1.40;;;31.19;42.68;95761.66;647241;216;32020;-74
2022/07/05 11:46:39;;;;;;;1.10;1.00;;;26.50;1.40;;;30.91;44.57;95757.75;646526;212;31693;-74
2022/07/05 11:49:21;;;;;;;0.90;0.90;;;26.50;1.40;;;30.87;44.53;95755.64;646669;216;31580;-76
2022/07/05 11:52:02;;;;;;;1.60;1.20;;;26.30;1.40;;;29.85;45.24;95764.73;645815;216;42364;-73
2022/07/05 11:54:44;;;;;;;1.00;0.90;;;26.70;1.40;;;32.94;40.49;95755.13;645593;216;31698;-76
2022/07/05 11:57:28;;;;;;;1.00;0.90;;;29.50;1.40;;;35.05;36.56;95750.52;647073;212;32045;-74
2022/07/05 12:00:12;;;;;;;1.20;1.10;;;29.30;1.40;;;34.24;39.05;95747.89;641963;217;32137;-73
2022/07/05 12:02:54;;;;;;;1.80;1.40;;;27.90;1.40;;;30.66;42.30;95757.53;630978;217;31720;-72
2022/07/05 12:05:35;;;;;;;1.40;0.95;;;26.40;1.40;;;29.48;44.05;95756.82;646577;216;31520;-75
2022/07/05 12:08:23;;;;;;;2.42;1.02;;;25.60;1.40;;;29.60;45.74;95755.34;619851;225;32323;-73
2022/07/05 12:13:51;;;;;;;1.00;1.00;;;25.50;1.40;;;27.84;49.20;95763.89;646890;216;31709;-75
2022/07/05 12:16:33;;;;;;;1.30;1.20;;;26.10;1.40;;;31.54;45.52;95748.75;646320;216;31510;-75
2022/07/05 12:19:24;;;;;;;1.50;1.30;;;29.20;1.40;;;32.64;43.22;95751.44;647268;212;31560;-73